Weather at Planeacres Airport

Public forecast

Using degrees Fahrenheit for public forecast. Weather courtesy of forecast.io.

Closest aviation weather report (METAR) to Planeacres Airport

Report is more than 2 hours old.

Closest report is Wittman Regional Airport, 5.5 nm (10.1 km) ENE. Retrieved 2021/06/20 02:53 UTC (6 hours ago):

KOSH 200253Z 00000KT 10SM CLR 19/16 A2976

Closest aviation forecast (TAF) to Planeacres Airport

Forecast is more than 12 hours old.

Closest forecast is Wittman Regional Airport, 5.5 nm (10.1 km) ENE. Retrieved 2021/05/03 12:42 UTC (2 months ago):

TAF KOSH 031141Z 0312/0412 VRB04KT 4SM TSRA BR OVC005CB TEMPO 0315/0318 2SM TSRA BR OVC001CB FM031800 04005KT 4SM SHRA BR OVC006 TEMPO 0318/0321 2SM TSRA BR OVC004CB FM040000 36007KT 4SM BR VCTS BKN005CB FM040300 35007KT 6SM BR VCSH BKN008 FM040600 33009KT P6SM OVC010